Time;durP1;ratioP1;P1;durP2;ratioP2;P2;SDS_P1;SDS_P2;PMS_P1;PMS_P2;Temp;Humidity;BMP_temperature;BMP_pressure;BME280_temperature;BME280_humidity;BME280_pressure;Samples;Min_cycle;Max_cycle;Signal;HPM_P1;HPM_P2
2022/05/15 00:02:12;;;;;;;;;;;;;;;21.71;45.66;101635.91;5111844;27;5368;-62
2022/05/15 00:04:38;;;;;;;;;;;;;;;21.71;45.97;101647.44;5106280;27;4073;-62
2022/05/15 00:07:05;;;;;;;;;;;;;;;21.71;46.17;101642.41;5102744;27;4229;-62
2022/05/15 00:09:31;;;;;;;;;;;;;;;21.71;45.90;101641.69;5104907;27;4187;-62
2022/05/15 00:11:58;;;;;;;;;;;;;;;21.71;46.27;101639.53;5111347;27;4220;-61
2022/05/15 00:14:24;;;;;;;;;;;;;;;21.70;46.18;101652.47;5115535;27;4187;-62
2022/05/15 00:16:50;;;;;;;;;;;;;;;21.70;46.17;101652.47;5107304;27;4165;-62
2022/05/15 00:19:17;;;;;;;;;;;;;;;21.70;46.23;101654.59;5109629;28;4206;-62
2022/05/15 00:21:43;;;;;;;;;;;;;;;21.69;45.87;101650.22;5106846;28;4241;-61
2022/05/15 00:24:10;;;;;;;;;;;;;;;21.70;46.07;101651.72;5113270;28;4366;-62
2022/05/15 00:26:36;;;;;;;;;;;;;;;21.69;45.98;101644.44;5109109;28;4287;-61
2022/05/15 00:29:04;;;;;;;;;;;;;;;21.69;45.86;101650.22;5101965;27;4448;-62
2022/05/15 00:31:30;;;;;;;;;;;;;;;21.68;46.03;101652.34;5095074;28;4050;-62
2022/05/15 00:33:56;;;;;;;;;;;;;;;21.67;46.01;101650.88;5107165;28;4360;-62
2022/05/15 00:36:23;;;;;;;;;;;;;;;21.67;46.07;101648.00;5112888;27;4338;-62
2022/05/15 00:38:49;;;;;;;;;;;;;;;21.67;46.01;101642.22;5116658;28;4226;-62
2022/05/15 00:41:15;;;;;;;;;;;;;;;21.67;45.93;101636.47;5092850;28;4168;-62
2022/05/15 00:43:43;;;;;;;;;;;;;;;21.66;45.74;101643.59;5113610;28;4286;-62
2022/05/15 00:46:11;;;;;;;;;;;;;;;21.66;46.01;101651.50;5112532;28;4040;-59
2022/05/15 00:48:37;;;;;;;;;;;;;;;21.57;44.79;101653.19;5105927;27;5094;-61
2022/05/15 00:51:07;;;;;;;;;;;;;;;21.57;44.60;101647.44;5109247;27;4052;-61
2022/05/15 00:53:34;;;;;;;;;;;;;;;21.57;44.53;101650.31;5086192;28;5257;-61
2022/05/15 00:56:00;;;;;;;;;;;;;;;21.58;44.53;101657.59;5103881;28;4177;-61
2022/05/15 00:58:30;;;;;;;;;;;;;;;21.59;44.76;101653.31;5101001;28;4075;-61
2022/05/15 01:00:57;;;;;;;;;;;;;;;21.59;44.93;101652.56;5098120;28;4195;-61
2022/05/15 01:03:24;;;;;;;;;;;;;;;21.59;45.30;101659.06;5103319;28;4033;-61
2022/05/15 01:05:51;;;;;;;;;;;;;;;21.58;45.54;101657.59;5097917;28;5404;-61
2022/05/15 01:08:21;;;;;;;;;;;;;;;21.59;45.42;101658.34;5096081;28;5382;-61
2022/05/15 01:10:48;;;;;;;;;;;;;;;21.58;45.53;101663.34;5102393;28;4091;-61
2022/05/15 01:13:15;;;;;;;;;;;;;;;21.59;45.61;101664.84;5099876;28;5351;-61
2022/05/15 01:15:41;;;;;;;;;;;;;;;21.59;45.44;101664.84;5115604;27;4229;-61
2022/05/15 01:18:12;;;;;;;;;;;;;;;21.59;45.43;101655.44;5096255;27;4114;-61
2022/05/15 01:20:38;;;;;;;;;;;;;;;21.58;45.38;101660.47;5087674;28;5500;-61
2022/05/15 01:23:05;;;;;;;;;;;;;;;21.59;45.37;101659.06;5086658;27;4179;-61
2022/05/15 01:25:33;;;;;;;;;;;;;;;21.59;45.41;101658.34;5094886;27;4123;-61
2022/05/15 01:28:06;;;;;;;;;;;;;;;21.58;45.27;101663.34;5114739;27;4183;-61
2022/05/15 01:30:34;;;;;;;;;;;;;;;21.58;45.24;101665.47;5112845;27;4289;-61
2022/05/15 01:33:02;;;;;;;;;;;;;;;21.56;45.35;101663.25;5099353;27;4078;-61
2022/05/15 01:35:28;;;;;;;;;;;;;;;21.56;45.35;101666.13;5100160;27;4249;-61
2022/05/15 01:38:00;;;;;;;;;;;;;;;21.55;45.29;101658.84;5094160;27;4257;-61
2022/05/15 01:40:26;;;;;;;;;;;;;;;21.55;45.41;101664.63;5101005;27;5514;-61
2022/05/15 01:42:53;;;;;;;;;;;;;;;21.54;45.43;101655.22;5116134;27;4075;-61
2022/05/15 01:45:19;;;;;;;;;;;;;;;21.54;45.51;101663.13;5101677;27;5425;-61
2022/05/15 01:47:45;;;;;;;;;;;;;;;21.54;45.55;101655.22;5104886;27;4241;-61
2022/05/15 01:50:12;;;;;;;;;;;;;;;21.55;45.25;101664.63;5102070;27;4296;-61
2022/05/15 01:52:39;;;;;;;;;;;;;;;21.54;45.18;101658.09;5104510;27;6023;-61
2022/05/15 01:55:06;;;;;;;;;;;;;;;21.54;45.28;101663.13;5101119;27;4202;-61
2022/05/15 01:57:33;;;;;;;;;;;;;;;21.55;45.29;101664.63;5093777;27;5336;-61
2022/05/15 01:59:59;;;;;;;;;;;;;;;21.54;45.15;101663.13;5098650;27;5333;-61
2022/05/15 02:02:27;;;;;;;;;;;;;;;21.54;45.26;101668.91;5112513;27;4195;-61
2022/05/15 02:04:54;;;;;;;;;;;;;;;21.54;45.34;101668.91;5115281;27;5117;-61
2022/05/15 02:07:20;;;;;;;;;;;;;;;21.53;45.30;101673.13;5114699;27;5292;-61
2022/05/15 02:09:47;;;;;;;;;;;;;;;21.52;45.14;101665.91;5098658;27;4241;-61
2022/05/15 02:12:14;;;;;;;;;;;;;;;21.52;45.12;101663.00;5103264;27;4397;-61
2022/05/15 02:14:41;;;;;;;;;;;;;;;21.52;45.27;101665.91;5116659;27;4345;-61
2022/05/15 02:17:07;;;;;;;;;;;;;;;21.52;45.17;101672.41;5101608;27;4360;-60
2022/05/15 02:19:34;;;;;;;;;;;;;;;21.52;45.03;101671.66;5100373;27;5245;-61
2022/05/15 02:22:00;;;;;;;;;;;;;;;21.52;45.24;101665.91;5100719;27;4252;-61
2022/05/15 02:24:26;;;;;;;;;;;;;;;21.51;44.99;101664.41;5100425;27;4208;-61
2022/05/15 02:26:53;;;;;;;;;;;;;;;21.51;45.17;101670.19;5114314;27;4220;-61
2022/05/15 02:29:19;;;;;;;;;;;;;;;21.50;45.00;101662.91;5096985;27;4169;-61
2022/05/15 02:31:46;;;;;;;;;;;;;;;21.50;45.02;101669.41;5099887;27;4265;-61
2022/05/15 02:34:12;;;;;;;;;;;;;;;21.50;45.07;101662.91;5112791;27;4237;-64
2022/05/15 02:36:39;;;;;;;;;;;;;;;21.51;44.98;101670.19;5116853;27;4343;-61
2022/05/15 02:39:06;;;;;;;;;;;;;;;21.51;45.14;101664.41;5104452;27;4210;-61
2022/05/15 02:41:34;;;;;;;;;;;;;;;21.51;45.05;101675.94;5103348;27;4256;-61
2022/05/15 02:44:01;;;;;;;;;;;;;;;21.52;45.07;101672.41;5097155;27;4228;-61
2022/05/15 02:46:27;;;;;;;;;;;;;;;21.53;44.85;101678.91;5095867;27;4187;-61
2022/05/15 02:51:40;;;;;;;;;;;;;;;21.54;45.15;101678.28;5100279;27;4271;-61
2022/05/15 02:54:06;;;;;;;;;;;;;;;21.54;45.09;101666.00;5114027;27;4355;-61
2022/05/15 02:56:33;;;;;;;;;;;;;;;21.54;45.15;101674.66;5116958;27;4264;-61
2022/05/15 02:59:03;;;;;;;;;;;;;;;21.54;45.12;101675.41;5099661;27;5261;-61
2022/05/15 03:01:30;;;;;;;;;;;;;;;21.54;45.09;101674.66;5102113;27;4219;-60
2022/05/15 03:03:56;;;;;;;;;;;;;;;21.54;45.02;101675.41;5093612;27;4356;-61
2022/05/15 03:06:23;;;;;;;;;;;;;;;21.54;44.95;101669.63;5099184;27;4246;-61
2022/05/15 03:08:50;;;;;;;;;;;;;;;21.55;44.86;101676.13;5118938;27;4211;-61
2022/05/15 03:11:17;;;;;;;;;;;;;;;21.56;45.11;101677.66;5117810;27;4016;-61
2022/05/15 03:13:43;;;;;;;;;;;;;;;21.56;44.96;101674.03;5113985;27;5506;-61
2022/05/15 03:16:09;;;;;;;;;;;;;;;21.57;45.03;101684.16;5106998;27;4264;-60
2022/05/15 03:18:41;;;;;;;;;;;;;;;21.57;45.05;101690.66;5099080;27;5362;-61
2022/05/15 03:21:08;;;;;;;;;;;;;;;21.57;44.90;101690.66;5101845;27;4151;-61
2022/05/15 03:23:34;;;;;;;;;;;;;;;21.58;44.92;101680.66;5113898;27;4936;-60
2022/05/15 03:26:00;;;;;;;;;;;;;;;21.58;44.97;101686.41;5118459;27;4350;-61
2022/05/15 03:28:27;;;;;;;;;;;;;;;21.60;45.03;101686.53;5116122;27;4146;-61
2022/05/15 03:30:53;;;;;;;;;;;;;;;21.60;45.11;101677.88;5117665;27;5412;-61
2022/05/15 03:33:20;;;;;;;;;;;;;;;21.60;45.12;101682.88;5115692;27;4183;-61
2022/05/15 03:35:46;;;;;;;;;;;;;;;21.60;45.00;101692.28;5097517;27;5225;-61
2022/05/15 03:38:14;;;;;;;;;;;;;;;21.59;45.01;101685.00;5097444;27;5530;-61
2022/05/15 03:40:40;;;;;;;;;;;;;;;21.60;44.84;101691.50;5117673;27;4187;-61
2022/05/15 03:43:08;;;;;;;;;;;;;;;21.59;44.89;101693.66;5096074;27;4213;-61
2022/05/15 03:45:34;;;;;;;;;;;;;;;21.59;44.83;101699.41;5115604;27;4177;-61
2022/05/15 03:48:03;;;;;;;;;;;;;;;21.59;44.86;101699.41;5117025;27;4066;-61
2022/05/15 03:50:29;;;;;;;;;;;;;;;21.60;45.05;101695.16;5098187;27;4174;-61
2022/05/15 03:52:56;;;;;;;;;;;;;;;21.60;44.95;101700.16;5116414;27;5313;-61
2022/05/15 03:55:22;;;;;;;;;;;;;;;21.59;45.02;101693.66;5096837;27;5317;-61
2022/05/15 03:57:55;;;;;;;;;;;;;;;21.59;44.84;101699.41;5102526;27;4268;-61
2022/05/15 04:00:23;;;;;;;;;;;;;;;21.60;44.90;101706.69;5097220;27;5557;-61
2022/05/15 04:02:50;;;;;;;;;;;;;;;21.61;44.99;101708.19;5094481;27;4163;-61
2022/05/15 04:05:17;;;;;;;;;;;;;;;21.61;44.95;101707.44;5112430;27;4265;-61
2022/05/15 04:07:43;;;;;;;;;;;;;;;21.61;44.86;101705.31;5118991;27;4223;-61
2022/05/15 04:10:10;;;;;;;;;;;;;;;21.62;44.85;101708.94;5114428;27;4136;-61
2022/05/15 04:12:37;;;;;;;;;;;;;;;21.60;44.92;101709.59;5111225;27;4488;-61
2022/05/15 04:15:04;;;;;;;;;;;;;;;21.62;44.98;101715.44;5115420;27;4184;-61
2022/05/15 04:17:30;;;;;;;;;;;;;;;21.61;44.86;101719.72;5115966;27;4848;-61
2022/05/15 04:20:00;;;;;;;;;;;;;;;21.61;45.04;101719.72;5098439;27;4174;-61
2022/05/15 04:22:27;;;;;;;;;;;;;;;21.62;44.95;101723.34;5103573;28;4258;-61
2022/05/15 04:24:53;;;;;;;;;;;;;;;21.61;44.95;101725.47;5105320;28;4521;-61
2022/05/15 04:27:19;;;;;;;;;;;;;;;21.61;44.96;101734.13;5114396;27;4223;-61
2022/05/15 04:29:46;;;;;;;;;;;;;;;21.61;44.95;101730.50;5115046;28;4133;-61
2022/05/15 04:32:12;;;;;;;;;;;;;;;21.62;44.99;101731.97;5116533;28;4159;-63
2022/05/15 04:34:39;;;;;;;;;;;;;;;21.63;44.99;101733.50;5115778;27;4163;-61
2022/05/15 04:37:05;;;;;;;;;;;;;;;21.63;44.94;101740.00;5115071;28;5221;-60
2022/05/15 04:39:33;;;;;;;;;;;;;;;21.63;44.97;101745.78;5113224;28;5370;-61
2022/05/15 04:42:00;;;;;;;;;;;;;;;21.63;45.02;101745.78;5116666;27;4245;-60
2022/05/15 04:44:27;;;;;;;;;;;;;;;21.62;44.90;101750.03;5113790;28;4151;-61
2022/05/15 04:46:53;;;;;;;;;;;;;;;21.62;44.91;101746.41;5117400;28;4194;-61
2022/05/15 04:49:19;;;;;;;;;;;;;;;21.63;44.98;101751.53;5114859;28;4323;-60
2022/05/15 04:51:46;;;;;;;;;;;;;;;21.62;44.99;101750.03;5116545;27;4295;-60
2022/05/15 04:54:12;;;;;;;;;;;;;;;21.62;44.96;101744.25;5120734;27;4211;-60
2022/05/15 04:56:38;;;;;;;;;;;;;;;21.62;44.92;101755.78;5118743;27;4352;-61
2022/05/15 04:59:05;;;;;;;;;;;;;;;21.62;45.05;101758.66;5117072;27;5286;-60
2022/05/15 05:01:31;;;;;;;;;;;;;;;21.61;45.02;101760.06;5119546;27;5375;-60
2022/05/15 05:03:57;;;;;;;;;;;;;;;21.63;44.70;101762.31;5119607;27;4040;-60
2022/05/15 05:06:24;;;;;;;;;;;;;;;21.62;44.83;101767.31;5120600;27;6207;-61
2022/05/15 05:08:51;;;;;;;;;;;;;;;21.63;45.05;101768.81;5119922;27;4048;-60
2022/05/15 05:11:17;;;;;;;;;;;;;;;21.62;44.85;101758.66;5120320;27;5706;-61
2022/05/15 05:13:43;;;;;;;;;;;;;;;21.63;45.03;101768.09;5118890;27;4229;-60
2022/05/15 05:16:10;;;;;;;;;;;;;;;21.63;45.11;101768.81;5120925;27;4293;-61
2022/05/15 05:18:36;;;;;;;;;;;;;;;21.63;45.06;101774.59;5119228;27;4197;-61
2022/05/15 05:21:03;;;;;;;;;;;;;;;21.63;44.94;101770.97;5118795;27;5350;-60
2022/05/15 05:23:29;;;;;;;;;;;;;;;21.63;45.00;101773.84;5120910;27;4272;-60
2022/05/15 05:25:55;;;;;;;;;;;;;;;21.63;45.10;101786.13;5119469;27;4282;-60
2022/05/15 05:28:22;;;;;;;;;;;;;;;21.63;45.05;101785.38;5117186;27;5169;-60
2022/05/15 05:30:48;;;;;;;;;;;;;;;21.63;44.92;101777.47;5118943;27;4225;-60
2022/05/15 05:33:14;;;;;;;;;;;;;;;21.63;45.04;101785.38;5117895;27;4538;-61
2022/05/15 05:35:41;;;;;;;;;;;;;;;21.62;45.12;101784.59;5118787;27;5475;-61
2022/05/15 05:38:07;;;;;;;;;;;;;;;21.63;45.03;101791.16;5118704;27;4212;-61
2022/05/15 05:40:34;;;;;;;;;;;;;;;21.62;44.90;101796.13;5118265;27;4155;-60
2022/05/15 05:43:00;;;;;;;;;;;;;;;21.62;45.08;101799.03;5116374;27;4239;-60
2022/05/15 05:45:27;;;;;;;;;;;;;;;21.62;45.04;101793.25;5120093;27;5343;-60
2022/05/15 05:47:55;;;;;;;;;;;;;;;21.61;45.16;101794.66;5120603;27;4149;-60
2022/05/15 05:50:22;;;;;;;;;;;;;;;21.62;45.26;101795.41;5114440;27;4320;-61
2022/05/15 05:52:48;;;;;;;;;;;;;;;21.62;45.02;101804.03;5116957;27;4334;-61
2022/05/15 05:55:15;;;;;;;;;;;;;;;21.61;45.02;101799.69;5120176;27;4146;-61
2022/05/15 05:57:41;;;;;;;;;;;;;;;21.61;45.17;101803.31;5116915;27;4391;-60
2022/05/15 06:00:09;;;;;;;;;;;;;;;21.61;45.20;101793.91;5119731;27;4055;-60
2022/05/15 06:02:37;;;;;;;;;;;;;;;21.61;45.15;101803.31;5115929;27;4193;-61
2022/05/15 06:05:03;;;;;;;;;;;;;;;21.60;45.21;101804.69;5120779;27;4217;-60
2022/05/15 06:07:30;;;;;;;;;;;;;;;21.61;45.22;101814.81;5118828;27;4359;-61
2022/05/15 06:09:57;;;;;;;;;;;;;;;21.61;45.27;101799.69;5117414;27;4207;-59
2022/05/15 06:12:28;;;;;;;;;;;;;;;21.56;45.26;101804.47;5104971;27;4260;-60
2022/05/15 06:14:54;;;;;;;;;;;;;;;21.49;44.73;101805.50;5113972;27;4034;-60
2022/05/15 06:17:21;;;;;;;;;;;;;;;21.40;44.93;101809.28;5113100;27;4201;-61
2022/05/15 06:19:48;;;;;;;;;;;;;;;21.49;44.84;101805.50;5114110;27;4415;-61
2022/05/15 06:22:14;;;;;;;;;;;;;;;21.54;44.95;101810.84;5117974;27;4445;-58
2022/05/15 06:24:41;;;;;;;;;;;;;;;21.57;44.81;101811.72;5120860;27;4320;-61
2022/05/15 06:27:07;;;;;;;;;;;;;;;21.60;44.98;101809.69;5119679;27;4112;-61
2022/05/15 06:29:35;;;;;;;;;;;;;;;21.60;45.12;101810.47;5115396;27;5017;-61
2022/05/15 06:32:01;;;;;;;;;;;;;;;21.63;45.23;101797.66;5116637;27;4387;-61
2022/05/15 06:34:28;;;;;;;;;;;;;;;21.62;45.28;101796.13;5116702;27;4168;-61
2022/05/15 06:36:54;;;;;;;;;;;;;;;21.64;45.25;101807.03;5117427;27;4184;-61
2022/05/15 06:39:21;;;;;;;;;;;;;;;21.64;45.04;101796.25;5115274;27;4151;-61
2022/05/15 06:41:50;;;;;;;;;;;;;;;21.64;44.81;101799.13;5119332;27;4236;-60
2022/05/15 06:44:26;;;;;;;;;;;;;;;21.62;44.85;101807.66;5096914;27;4169;-61
2022/05/15 06:46:52;;;;;;;;;;;;;;;21.63;44.58;101799.78;5118325;27;4170;-60
2022/05/15 06:49:19;;;;;;;;;;;;;;;21.62;44.89;101801.91;5115769;27;4302;-59
2022/05/15 06:51:45;;;;;;;;;;;;;;;21.63;44.72;101806.31;5114957;27;4317;-60
2022/05/15 06:54:12;;;;;;;;;;;;;;;21.64;45.04;101804.91;5118519;27;4400;-61
2022/05/15 06:59:23;;;;;;;;;;;;;;;21.65;45.20;101806.41;5117065;27;4097;-61
2022/05/15 07:01:49;;;;;;;;;;;;;;;21.65;45.88;101811.44;5114326;27;4218;-61
2022/05/15 07:04:16;;;;;;;;;;;;;;;21.64;45.90;101810.66;5115468;27;4077;-61
2022/05/15 07:06:42;;;;;;;;;;;;;;;21.65;45.94;101811.44;5115310;27;4148;-61
2022/05/15 07:09:09;;;;;;;;;;;;;;;21.63;45.95;101814.19;5116431;27;4138;-61
2022/05/15 07:11:35;;;;;;;;;;;;;;;21.63;46.01;101814.94;5117784;27;4531;-61
2022/05/15 07:14:01;;;;;;;;;;;;;;;21.64;46.26;101810.66;5117181;27;4148;-61
2022/05/15 07:16:28;;;;;;;;;;;;;;;21.64;46.24;101807.78;5099515;27;4695;-63
2022/05/15 07:18:54;;;;;;;;;;;;;;;21.65;46.13;101817.19;5119589;27;5311;-62
2022/05/15 07:21:21;;;;;;;;;;;;;;;21.66;46.14;101815.81;5117108;27;4547;-62
2022/05/15 07:23:48;;;;;;;;;;;;;;;21.64;46.05;101816.44;5103365;27;4463;-62
2022/05/15 07:26:14;;;;;;;;;;;;;;;21.65;46.14;101812.19;5108080;27;4218;-59
2022/05/15 07:28:40;;;;;;;;;;;;;;;21.66;45.99;101807.16;5108894;27;4229;-66
2022/05/15 07:31:07;;;;;;;;;;;;;;;21.66;45.87;101816.56;5113808;27;4231;-67
2022/05/15 07:33:33;;;;;;;;;;;;;;;21.66;45.99;101815.81;5113154;27;4188;-64
2022/05/15 07:36:00;;;;;;;;;;;;;;;21.49;43.82;101823.53;5109666;27;4171;-64
2022/05/15 07:38:26;;;;;;;;;;;;;;;21.32;42.92;101816.06;5117095;27;4191;-70
2022/05/15 07:40:53;;;;;;;;;;;;;;;21.36;42.68;101809.03;5118268;27;5574;-68
2022/05/15 07:43:19;;;;;;;;;;;;;;;21.42;43.05;101815.19;5114877;27;5235;-67
2022/05/15 07:45:46;;;;;;;;;;;;;;;21.44;43.32;101816.06;5113823;27;4223;-68
2022/05/15 07:48:12;;;;;;;;;;;;;;;21.62;44.51;101810.56;5114975;27;5340;-65
2022/05/15 07:50:39;;;;;;;;;;;;;;;21.65;44.40;101806.41;5113531;27;4159;-65
2022/05/15 07:53:05;;;;;;;;;;;;;;;21.62;44.71;101815.56;5116875;27;5270;-66
2022/05/15 07:55:31;;;;;;;;;;;;;;;21.56;43.69;101818.88;5112871;27;4568;-65
2022/05/15 07:57:58;;;;;;;;;;;;;;;21.39;43.46;101811.38;5113734;27;5325;-75
2022/05/15 08:00:26;;;;;;;;;;;;;;;21.39;43.30;101808.50;5112661;27;4167;-70
2022/05/15 08:03:07;;;;;;;;;;;;;;;21.42;43.09;101809.44;5106115;27;4609;-71
2022/05/15 08:08:24;;;;;;;;;;;;;;;21.43;42.68;101808.03;5112618;27;4288;-72
2022/05/15 08:10:50;;;;;;;;;;;;;;;21.45;42.93;101822.56;5114429;27;4388;-71
2022/05/15 08:13:17;;;;;;;;;;;;;;;21.45;43.01;101808.16;5110444;27;5314;-71
2022/05/15 08:15:44;;;;;;;;;;;;;;;21.46;43.18;101806.75;5114765;27;4251;-71
2022/05/15 08:23:44;;;;;;;;;;;;;;;21.47;43.73;101808.25;5116221;27;5484;-71
2022/05/15 08:26:11;;;;;;;;;;;;;;;21.47;43.93;101808.25;5114178;27;5373;-71
2022/05/15 08:28:37;;;;;;;;;;;;;;;21.46;43.83;101804.63;5115136;27;4243;-71
2022/05/15 08:31:03;;;;;;;;;;;;;;;21.47;44.18;101802.50;5117756;27;4055;-70
2022/05/15 08:33:31;;;;;;;;;;;;;;;21.47;44.34;101806.13;5111803;27;4250;-71
2022/05/15 08:35:57;;;;;;;;;;;;;;;21.47;44.15;101802.50;5114062;27;4266;-70
2022/05/15 08:38:23;;;;;;;;;;;;;;;21.47;44.48;101796.75;5114378;27;4064;-71
2022/05/15 08:40:55;;;;;;;;;;;;;;;21.47;44.48;101802.50;5116686;27;4134;-71
2022/05/15 08:43:24;;;;;;;;;;;;;;;21.46;44.47;101801.00;5117761;28;5412;-71
2022/05/15 08:45:53;;;;;;;;;;;;;;;21.47;44.28;101802.50;5105262;28;4292;-72
2022/05/15 08:48:19;;;;;;;;;;;;;;;21.47;44.58;101796.75;5101721;28;5225;-71
2022/05/15 08:50:48;;;;;;;;;;;;;;;21.48;44.37;101806.88;5105331;28;4137;-71
2022/05/15 08:53:16;;;;;;;;;;;;;;;21.47;44.59;101809.00;5107167;27;5276;-70
2022/05/15 08:55:47;;;;;;;;;;;;;;;21.46;44.47;101806.75;5113412;27;4404;-71
2022/05/15 08:58:15;;;;;;;;;;;;;;;21.47;44.71;101808.25;5098809;28;4216;-70
2022/05/15 09:00:46;;;;;;;;;;;;;;;21.46;44.68;101801.00;5112790;27;4200;-71
2022/05/15 09:03:22;;;;;;;;;;;;;;;21.46;44.76;101804.63;5113336;27;4194;-70
2022/05/15 09:06:01;;;;;;;;;;;;;;;21.47;44.76;101809.00;5117229;27;4176;-71
2022/05/15 09:08:39;;;;;;;;;;;;;;;21.46;44.68;101804.63;5100759;28;4204;-71
2022/05/15 09:11:06;;;;;;;;;;;;;;;21.47;44.86;101803.25;5095669;27;4182;-71
2022/05/15 09:13:39;;;;;;;;;;;;;;;21.46;44.86;101801.75;5098391;28;4181;-71
2022/05/15 09:16:07;;;;;;;;;;;;;;;21.46;44.81;101801.00;5117086;27;4050;-71
2022/05/15 09:18:37;;;;;;;;;;;;;;;21.47;44.74;101809.00;5099248;28;5330;-71
2022/05/15 09:21:07;;;;;;;;;;;;;;;21.48;44.94;101804.00;5112639;27;4377;-71
2022/05/15 09:23:37;;;;;;;;;;;;;;;21.47;44.73;101796.75;5114822;27;4153;-71
2022/05/15 09:26:22;;;;;;;;;;;;;;;21.48;44.86;101801.09;5116456;28;4187;-71
2022/05/15 09:28:48;;;;;;;;;;;;;;;21.47;44.87;101794.59;5114304;27;5283;-71
2022/05/15 09:31:25;;;;;;;;;;;;;;;21.48;44.79;101786.69;5113389;27;4246;-70
2022/05/15 09:33:52;;;;;;;;;;;;;;;21.47;45.09;101780.19;5115030;27;4251;-71
2022/05/15 09:36:20;;;;;;;;;;;;;;;21.47;45.00;101785.22;5108838;27;4318;-71
2022/05/15 09:38:46;;;;;;;;;;;;;;;21.48;45.12;101780.94;5118756;27;4176;-71
2022/05/15 09:44:27;;;;;;;;;;;;;;;21.47;44.87;101782.34;5115176;27;4071;-70
2022/05/15 09:47:05;;;;;;;;;;;;;;;21.48;44.92;101780.94;5115136;27;4167;-71
2022/05/15 09:49:32;;;;;;;;;;;;;;;21.48;45.12;101780.94;5103198;27;5257;-71
2022/05/15 09:51:59;;;;;;;;;;;;;;;21.48;44.93;101781.69;5121332;27;4220;-71
2022/05/15 09:54:34;;;;;;;;;;;;;;;21.48;45.04;101780.94;5119681;27;4077;-71
2022/05/15 09:57:08;;;;;;;;;;;;;;;21.48;45.23;101786.69;5117384;27;5469;-71
2022/05/15 09:59:34;;;;;;;;;;;;;;;21.49;45.17;101776.69;5118242;27;4206;-71
2022/05/15 10:02:01;;;;;;;;;;;;;;;21.49;45.09;101782.44;5119011;27;4263;-71
2022/05/15 10:04:31;;;;;;;;;;;;;;;21.48;45.27;101778.06;5119242;27;4271;-70
2022/05/15 10:06:58;;;;;;;;;;;;;;;21.48;45.23;101775.91;5117243;27;4248;-71
2022/05/15 10:09:26;;;;;;;;;;;;;;;21.49;45.26;101780.31;5117090;27;4208;-71
2022/05/15 10:11:55;;;;;;;;;;;;;;;21.49;45.11;101770.91;5117564;27;5252;-71
2022/05/15 10:14:27;;;;;;;;;;;;;;;21.49;45.17;101773.81;5107369;27;5206;-73
2022/05/15 10:16:54;;;;;;;;;;;;;;;21.48;45.32;101769.41;5119111;27;4605;-71
2022/05/15 10:19:32;;;;;;;;;;;;;;;21.49;45.19;101771.66;5114905;27;4303;-72
2022/05/15 10:22:07;;;;;;;;;;;;;;;21.49;45.31;101771.66;5118956;27;4221;-70
2022/05/15 10:24:34;;;;;;;;;;;;;;;21.50;45.14;101758.00;5118735;27;5350;-71
2022/05/15 10:27:04;;;;;;;;;;;;;;;21.48;45.41;101752.88;5100359;27;5283;-71
2022/05/15 10:29:49;;;;;;;;;;;;;;;21.49;45.21;101742.09;5118527;27;4027;-71
2022/05/15 10:32:21;;;;;;;;;;;;;;;21.49;45.49;101750.75;5117414;27;5321;-71
2022/05/15 10:34:47;;;;;;;;;;;;;;;21.49;45.27;101742.09;5105883;27;4433;-71
2022/05/15 10:37:32;;;;;;;;;;;;;;;21.49;45.54;101737.09;5120066;27;5391;-71
2022/05/15 10:40:08;;;;;;;;;;;;;;;21.49;45.36;101737.09;5117077;27;4022;-71
2022/05/15 10:42:39;;;;;;;;;;;;;;;21.49;45.50;101739.22;5115640;27;5216;-72
2022/05/15 10:45:15;;;;;;;;;;;;;;;21.50;45.51;101743.59;5107554;27;4058;-71
2022/05/15 10:47:45;;;;;;;;;;;;;;;21.49;45.38;101736.34;5109727;27;5289;-70
2022/05/15 10:50:29;;;;;;;;;;;;;;;21.50;45.31;101737.81;5097835;27;4122;-71
2022/05/15 10:58:54;;;;;;;;;;;;;;;21.50;45.43;101726.31;5107957;27;5468;-71
2022/05/15 11:01:32;;;;;;;;;;;;;;;21.50;45.66;101732.06;5108294;27;4183;-71
2022/05/15 11:04:12;;;;;;;;;;;;;;;21.51;45.52;101727.81;5099570;27;4206;-72
2022/05/15 11:06:50;;;;;;;;;;;;;;;21.51;45.46;101736.47;5113327;27;4467;-70
2022/05/15 11:09:19;;;;;;;;;;;;;;;21.50;45.57;101729.94;5106324;27;5269;-71
2022/05/15 11:11:59;;;;;;;;;;;;;;;21.51;45.59;101733.56;5117846;27;4298;-72
2022/05/15 11:14:31;;;;;;;;;;;;;;;21.51;45.66;101727.81;5102852;27;4165;-70
2022/05/15 11:17:02;;;;;;;;;;;;;;;21.51;45.66;101722.06;5103517;27;4166;-71
2022/05/15 11:19:39;;;;;;;;;;;;;;;21.50;45.55;101721.28;5103908;27;5274;-71
2022/05/15 11:22:11;;;;;;;;;;;;;;;21.51;45.62;101719.16;5119484;27;4235;-71
2022/05/15 11:24:43;;;;;;;;;;;;;;;21.52;45.61;101717.78;5116764;27;5269;-71
2022/05/15 11:27:09;;;;;;;;;;;;;;;21.51;45.63;101719.16;5114892;27;5422;-71
2022/05/15 11:29:35;;;;;;;;;;;;;;;21.51;45.55;101710.53;5117479;27;4168;-71
2022/05/15 11:32:02;;;;;;;;;;;;;;;21.52;45.73;101712.00;5118479;27;4155;-71
2022/05/15 11:34:46;;;;;;;;;;;;;;;21.52;45.68;101706.25;5094950;27;4163;-71
2022/05/15 11:37:39;;;;;;;;;;;;;;;21.52;45.74;101709.13;5114785;27;4295;-69
2022/05/15 11:40:28;;;;;;;;;;;;;;;21.52;45.62;101709.13;5099307;27;4158;-71
2022/05/15 11:42:55;;;;;;;;;;;;;;;21.53;45.82;101701.97;5115907;27;4193;-71
2022/05/15 11:45:28;;;;;;;;;;;;;;;21.52;45.89;101706.25;5114091;27;4215;-71
2022/05/15 11:47:56;;;;;;;;;;;;;;;21.52;45.68;101700.47;5116238;27;4159;-71
2022/05/15 11:50:30;;;;;;;;;;;;;;;21.52;45.74;101697.59;5117282;27;4150;-71
2022/05/15 11:52:56;;;;;;;;;;;;;;;21.52;45.82;101688.94;5115856;27;5315;-70
2022/05/15 11:55:34;;;;;;;;;;;;;;;21.53;45.71;101693.31;5115584;27;4142;-70
2022/05/15 11:58:16;;;;;;;;;;;;;;;21.52;45.75;101678.16;5114555;27;4206;-71
2022/05/15 12:00:42;;;;;;;;;;;;;;;21.53;45.96;101679.69;5112804;27;5083;-71
2022/05/15 12:03:27;;;;;;;;;;;;;;;21.53;45.74;101684.66;5101552;27;4227;-72
2022/05/15 12:06:04;;;;;;;;;;;;;;;21.53;45.84;101679.69;5116321;27;5169;-72
2022/05/15 12:08:34;;;;;;;;;;;;;;;21.53;45.92;101681.78;5114082;27;4275;-72
2022/05/15 12:11:12;;;;;;;;;;;;;;;21.53;45.95;101676.78;5117726;27;5289;-73
2022/05/15 12:13:40;;;;;;;;;;;;;;;21.53;46.05;101673.91;5110210;27;5194;-72
2022/05/15 12:16:20;;;;;;;;;;;;;;;21.53;46.08;101668.16;5111965;27;4254;-73
2022/05/15 12:18:47;;;;;;;;;;;;;;;21.52;45.90;101663.75;5111469;27;4159;-72
2022/05/15 12:21:14;;;;;;;;;;;;;;;21.54;46.04;101663.13;5111823;27;4245;-69
2022/05/15 12:24:27;;;;;;;;;;;;;;;21.54;46.12;101658.09;5114901;27;5314;-72
2022/05/15 12:26:42;;;;;;;;;;;;;;;21.54;46.24;101666.00;5114585;27;4121;-72
2022/05/15 12:29:27;;;;;;;;;;;;;;;21.54;46.06;101658.09;5098661;27;4459;-69
2022/05/15 12:31:54;;;;;;;;;;;;;;;21.53;46.33;101656.63;5114672;27;4171;-70
2022/05/15 12:34:27;;;;;;;;;;;;;;;21.54;46.31;101655.22;5095453;28;4056;-72
2022/05/15 12:36:55;;;;;;;;;;;;;;;21.54;46.34;101657.38;5093418;28;5324;-71
2022/05/15 12:39:22;;;;;;;;;;;;;;;21.56;46.52;101653.84;5091505;28;4179;-69
2022/05/15 12:41:49;;;;;;;;;;;;;;;21.56;46.60;101654.59;5098303;28;4329;-70
2022/05/15 12:44:15;;;;;;;;;;;;;;;21.56;46.54;101651.72;5094290;28;5506;-73
2022/05/15 12:46:49;;;;;;;;;;;;;;;21.56;46.72;101648.09;5094252;28;5338;-69
2022/05/15 12:49:18;;;;;;;;;;;;;;;21.54;46.75;101643.69;5097764;28;4357;-72
2022/05/15 12:51:44;;;;;;;;;;;;;;;21.57;46.93;101644.56;5096272;28;4235;-75
2022/05/15 12:54:20;;;;;;;;;;;;;;;21.57;46.87;101640.94;5094837;28;4264;-75
2022/05/15 12:56:50;;;;;;;;;;;;;;;21.57;46.90;101640.94;5094896;28;4174;-75
2022/05/15 12:59:19;;;;;;;;;;;;;;;21.56;47.08;101630.78;5094336;28;4238;-75
2022/05/15 13:01:45;;;;;;;;;;;;;;;21.57;47.23;101633.03;5100882;28;4171;-75
2022/05/15 13:04:23;;;;;;;;;;;;;;;21.57;47.30;101623.63;5097023;28;5486;-76
2022/05/15 13:06:53;;;;;;;;;;;;;;;21.57;47.33;101633.03;5096137;28;4196;-75
2022/05/15 13:09:20;;;;;;;;;;;;;;;21.58;47.42;101622.22;5095839;28;4224;-76
2022/05/15 13:11:47;;;;;;;;;;;;;;;21.58;47.39;101623.00;5097380;28;4150;-73
2022/05/15 13:14:17;;;;;;;;;;;;;;;21.57;47.62;101621.50;5103076;27;5221;-72
2022/05/15 13:16:44;;;;;;;;;;;;;;;21.58;47.61;101617.25;5099940;28;5314;-73
2022/05/15 13:19:13;;;;;;;;;;;;;;;21.58;47.80;101617.25;5104718;28;5651;-73